Time;durP1;ratioP1;P1;durP2;ratioP2;P2;SDS_P1;SDS_P2;PMS_P1;PMS_P2;Temp;Humidity;BMP_temperature;BMP_pressure;BME280_temperature;BME280_humidity;BME280_pressure;Samples;Min_cycle;Max_cycle;Signal;HPM_P1;HPM_P2
2021/08/18 00:01:41;;;;;;;2.88;1.80;;;;;;;;;;5094652;28;20027;-83
2021/08/18 00:04:08;;;;;;;3.92;2.03;;;;;;;;;;5094558;28;20120;-84
2021/08/18 00:06:34;;;;;;;3.95;1.85;;;;;;;;;;5094529;28;20024;-84
2021/08/18 00:09:00;;;;;;;3.70;1.77;;;;;;;;;;5094493;28;20028;-82
2021/08/18 00:11:26;;;;;;;4.97;1.90;;;;;;;;;;5094489;28;20605;-84
2021/08/18 00:13:52;;;;;;;3.10;1.70;;;;;;;;;;5096252;28;20048;-82
2021/08/18 00:16:20;;;;;;;3.50;2.00;;;;;;;;;;5094263;28;20511;-84
2021/08/18 00:18:51;;;;;;;4.70;2.00;;;;;;;;;;5094337;28;20024;-82
2021/08/18 00:21:18;;;;;;;3.80;1.80;;;;;;;;;;5094279;28;20024;-84
2021/08/18 00:23:45;;;;;;;5.40;1.90;;;;;;;;;;5094273;28;20028;-84
2021/08/18 00:26:12;;;;;;;3.95;2.33;;;;;;;;;;5095418;28;20074;-84
2021/08/18 00:28:38;;;;;;;5.15;2.20;;;;;;;;;;5093432;28;20388;-82
2021/08/18 00:31:04;;;;;;;4.00;1.95;;;;;;;;;;5094059;28;20036;-83
2021/08/18 00:33:31;;;;;;;3.42;1.90;;;;;;;;;;5094029;28;20028;-84
2021/08/18 00:35:57;;;;;;;2.92;1.83;;;;;;;;;;5093966;28;20031;-83
2021/08/18 00:38:23;;;;;;;3.17;1.88;;;;;;;;;;5093809;28;20442;-83
2021/08/18 00:40:49;;;;;;;3.92;1.85;;;;;;;;;;5093862;28;20016;-83
2021/08/18 00:43:16;;;;;;;3.95;1.90;;;;;;;;;;5093812;28;20067;-84
2021/08/18 00:45:42;;;;;;;4.72;2.20;;;;;;;;;;5093495;28;20476;-82
2021/08/18 00:48:09;;;;;;;3.60;1.85;;;;;;;;;;5093832;28;20589;-82
2021/08/18 00:50:35;;;;;;;5.35;2.03;;;;;;;;;;5095517;28;20024;-84
2021/08/18 00:53:01;;;;;;;5.25;1.98;;;;;;;;;;5093689;28;20034;-82
2021/08/18 00:55:28;;;;;;;4.85;2.20;;;;;;;;;;5093563;28;20034;-83
2021/08/18 00:57:57;;;;;;;2.78;1.65;;;;;;;;;;5093644;28;20119;-82
2021/08/18 01:00:24;;;;;;;4.32;2.10;;;;;;;;;;5093565;28;20028;-84
2021/08/18 01:02:51;;;;;;;3.95;2.00;;;;;;;;;;5094702;28;20029;-84
2021/08/18 01:05:18;;;;;;;3.70;2.13;;;;;;;;;;5093389;28;20020;-82
2021/08/18 01:07:46;;;;;;;6.90;2.22;;;;;;;;;;5093358;28;20032;-83
2021/08/18 01:10:13;;;;;;;3.60;1.83;;;;;;;;;;5094533;28;20102;-85
2021/08/18 01:12:40;;;;;;;5.55;2.28;;;;;;;;;;5093264;28;20055;-82
2021/08/18 01:15:10;;;;;;;3.17;1.52;;;;;;;;;;5094473;28;20510;-83
2021/08/18 01:17:44;;;;;;;5.47;2.03;;;;;;;;;;5093189;28;20373;-82
2021/08/18 01:20:11;;;;;;;5.70;2.10;;;;;;;;;;5093173;28;20066;-83
2021/08/18 01:22:37;;;;;;;5.38;2.20;;;;;;;;;;5093132;28;20034;-82
2021/08/18 01:25:07;;;;;;;8.02;2.28;;;;;;;;;;5094357;28;20020;-82
2021/08/18 01:27:36;;;;;;;3.83;1.80;;;;;;;;;;5092947;28;20418;-83
2021/08/18 01:30:06;;;;;;;4.20;1.88;;;;;;;;;;5094206;28;20468;-82
2021/08/18 01:32:49;;;;;;;2.92;1.70;;;;;;;;;;5092898;28;20020;-84
2021/08/18 01:35:23;;;;;;;3.42;1.83;;;;;;;;;;5092903;28;20117;-83
2021/08/18 01:37:50;;;;;;;4.95;2.45;;;;;;;;;;5092727;28;20153;-82
2021/08/18 01:40:16;;;;;;;6.68;2.40;;;;;;;;;;5091934;28;20460;-84
2021/08/18 01:42:43;;;;;;;3.92;2.10;;;;;;;;;;5092728;28;20081;-84
2021/08/18 01:45:09;;;;;;;3.97;1.73;;;;;;;;;;5092540;28;20077;-84
2021/08/18 01:47:36;;;;;;;4.85;1.95;;;;;;;;;;5092715;28;20034;-82
2021/08/18 01:50:03;;;;;;;4.45;2.10;;;;;;;;;;5093914;28;20105;-82
2021/08/18 01:52:29;;;;;;;4.32;2.13;;;;;;;;;;5092622;28;20032;-83
2021/08/18 01:54:56;;;;;;;5.28;2.30;;;;;;;;;;5092558;28;20021;-82
2021/08/18 01:57:22;;;;;;;3.53;1.75;;;;;;;;;;5094328;28;20055;-82
2021/08/18 01:59:48;;;;;;;3.90;2.13;;;;;;;;;;5093724;28;20020;-82
2021/08/18 02:02:15;;;;;;;5.43;2.15;;;;;;;;;;5093818;28;20468;-82
2021/08/18 02:04:41;;;;;;;4.25;2.13;;;;;;;;;;5092384;28;20488;-82
2021/08/18 02:07:07;;;;;;;5.07;2.22;;;;;;;;;;5092522;28;20028;-83
2021/08/18 02:09:34;;;;;;;3.55;1.95;;;;;;;;;;5092462;28;20028;-82
2021/08/18 02:12:00;;;;;;;4.63;2.30;;;;;;;;;;5092374;28;20020;-83
2021/08/18 02:14:26;;;;;;;4.30;2.20;;;;;;;;;;5092458;28;20020;-84
2021/08/18 02:16:52;;;;;;;4.60;2.33;;;;;;;;;;5094076;28;20483;-82
2021/08/18 02:19:19;;;;;;;5.85;2.10;;;;;;;;;;5092307;28;20028;-83
2021/08/18 02:21:45;;;;;;;6.03;2.53;;;;;;;;;;5092260;28;20031;-84
2021/08/18 02:24:11;;;;;;;4.75;2.22;;;;;;;;;;5092338;28;20032;-84
2021/08/18 02:26:37;;;;;;;6.95;2.53;;;;;;;;;;5092343;28;20141;-83
2021/08/18 02:29:03;;;;;;;6.53;2.30;;;;;;;;;;5092314;28;20110;-82
2021/08/18 02:31:30;;;;;;;6.20;2.30;;;;;;;;;;5094092;28;20097;-84
2021/08/18 02:33:56;;;;;;;4.25;2.30;;;;;;;;;;5092261;28;20119;-84
2021/08/18 02:36:22;;;;;;;6.38;2.47;;;;;;;;;;5092068;28;20020;-84
2021/08/18 02:38:48;;;;;;;3.78;2.40;;;;;;;;;;5092088;28;20063;-84
2021/08/18 02:41:15;;;;;;;5.05;2.63;;;;;;;;;;5092009;28;20366;-84
2021/08/18 02:43:41;;;;;;;5.82;2.58;;;;;;;;;;5091884;28;20024;-84
2021/08/18 02:46:07;;;;;;;5.63;2.72;;;;;;;;;;5092258;28;20028;-82
2021/08/18 02:48:33;;;;;;;5.78;2.58;;;;;;;;;;5092171;28;20097;-84
2021/08/18 02:50:59;;;;;;;5.97;2.63;;;;;;;;;;5093921;28;20020;-82
2021/08/18 02:53:26;;;;;;;5.45;2.65;;;;;;;;;;5096476;28;20531;-84
2021/08/18 02:55:52;;;;;;;4.53;2.60;;;;;;;;;;5095935;28;20464;-84
2021/08/18 02:58:18;;;;;;;5.80;2.75;;;;;;;;;;5095812;28;20028;-84
2021/08/18 03:00:44;;;;;;;5.93;2.28;;;;;;;;;;5095706;28;20020;-83
2021/08/18 03:03:10;;;;;;;6.63;2.90;;;;;;;;;;5097091;28;20027;-84
2021/08/18 03:05:36;;;;;;;4.22;2.45;;;;;;;;;;5097621;28;20025;-84
2021/08/18 03:08:03;;;;;;;5.65;2.58;;;;;;;;;;5095628;28;20035;-83
2021/08/18 03:10:29;;;;;;;7.13;2.55;;;;;;;;;;5096896;28;20446;-83
2021/08/18 03:12:55;;;;;;;4.82;2.65;;;;;;;;;;5095612;28;20365;-83
2021/08/18 03:15:22;;;;;;;4.85;2.60;;;;;;;;;;5095554;28;20028;-82
2021/08/18 03:17:48;;;;;;;7.00;2.90;;;;;;;;;;5096765;28;20439;-84
2021/08/18 03:20:14;;;;;;;4.50;2.60;;;;;;;;;;5095464;28;20032;-84
2021/08/18 03:22:40;;;;;;;4.63;2.42;;;;;;;;;;5095391;28;20020;-83
2021/08/18 03:25:07;;;;;;;5.13;2.63;;;;;;;;;;5096625;28;20469;-83
2021/08/18 03:27:33;;;;;;;7.65;2.45;;;;;;;;;;5095280;28;20024;-83
2021/08/18 03:29:59;;;;;;;9.18;2.58;;;;;;;;;;5095284;28;20027;-84
2021/08/18 03:32:25;;;;;;;9.50;2.97;;;;;;;;;;5095205;28;20114;-82
2021/08/18 03:34:51;;;;;;;5.60;2.75;;;;;;;;;;5095134;28;20369;-84
2021/08/18 03:37:18;;;;;;;5.63;2.35;;;;;;;;;;5095052;28;20059;-82
2021/08/18 03:39:44;;;;;;;5.93;2.97;;;;;;;;;;5095030;28;20032;-84
2021/08/18 03:42:10;;;;;;;5.30;2.25;;;;;;;;;;5096293;28;20052;-84
2021/08/18 03:44:36;;;;;;;6.53;3.15;;;;;;;;;;5094818;28;20044;-84
2021/08/18 03:47:02;;;;;;;7.65;2.45;;;;;;;;;;5094917;28;20486;-83
2021/08/18 03:49:29;;;;;;;4.55;2.75;;;;;;;;;;5094833;28;20024;-82
2021/08/18 03:51:55;;;;;;;5.57;2.78;;;;;;;;;;5096120;28;20028;-82
2021/08/18 03:54:21;;;;;;;4.47;2.50;;;;;;;;;;5094814;28;20030;-84
2021/08/18 03:56:47;;;;;;;4.35;2.42;;;;;;;;;;5094624;28;20035;-83
2021/08/18 03:59:14;;;;;;;6.00;2.63;;;;;;;;;;5094749;28;20032;-84
2021/08/18 04:01:40;;;;;;;6.85;2.80;;;;;;;;;;5094651;28;20388;-84
2021/08/18 04:04:06;;;;;;;6.15;2.45;;;;;;;;;;5094820;28;20440;-84
2021/08/18 04:06:32;;;;;;;4.75;2.33;;;;;;;;;;5094544;28;20024;-83
2021/08/18 04:08:59;;;;;;;5.43;2.65;;;;;;;;;;5094481;28;20058;-82
2021/08/18 04:11:25;;;;;;;5.15;2.38;;;;;;;;;;5095719;28;20020;-85
2021/08/18 04:13:52;;;;;;;4.68;2.40;;;;;;;;;;5094406;28;20120;-83
2021/08/18 04:16:18;;;;;;;6.20;2.90;;;;;;;;;;5094298;28;20031;-83
2021/08/18 04:18:44;;;;;;;5.90;2.75;;;;;;;;;;5095623;28;20040;-83
2021/08/18 04:21:11;;;;;;;6.68;2.60;;;;;;;;;;5094503;28;20401;-84
2021/08/18 04:23:37;;;;;;;5.47;2.47;;;;;;;;;;5094247;28;20377;-83
2021/08/18 04:26:04;;;;;;;7.00;2.80;;;;;;;;;;5095399;28;20080;-84
2021/08/18 04:28:30;;;;;;;5.53;2.72;;;;;;;;;;5094112;28;20023;-84
2021/08/18 04:30:56;;;;;;;4.80;2.60;;;;;;;;;;5093998;28;20044;-84
2021/08/18 04:33:22;;;;;;;4.32;2.60;;;;;;;;;;5094003;28;20403;-83
2021/08/18 04:35:48;;;;;;;5.97;2.42;;;;;;;;;;5094045;28;20032;-84
2021/08/18 04:38:15;;;;;;;5.57;2.38;;;;;;;;;;5093911;28;20028;-82
2021/08/18 04:40:41;;;;;;;7.93;2.83;;;;;;;;;;5093938;28;20465;-82
2021/08/18 04:43:07;;;;;;;7.95;2.72;;;;;;;;;;5094016;28;20070;-83
2021/08/18 04:45:33;;;;;;;8.32;2.58;;;;;;;;;;5093785;28;20040;-83
2021/08/18 04:47:59;;;;;;;6.80;2.47;;;;;;;;;;5093727;28;20031;-84
2021/08/18 04:50:25;;;;;;;7.50;2.67;;;;;;;;;;5093690;28;20028;-83
2021/08/18 04:52:51;;;;;;;5.28;2.88;;;;;;;;;;5094969;28;20028;-84
2021/08/18 04:55:17;;;;;;;5.28;2.70;;;;;;;;;;5093574;28;20031;-83
2021/08/18 04:57:44;;;;;;;7.07;2.70;;;;;;;;;;5090044;28;20389;-82
2021/08/18 05:00:12;;;;;;;5.22;2.47;;;;;;;;;;5092384;28;20098;-82
2021/08/18 05:02:38;;;;;;;7.18;2.88;;;;;;;;;;5094954;28;20024;-82
2021/08/18 05:05:05;;;;;;;5.30;2.75;;;;;;;;;;5093139;28;20024;-82
2021/08/18 05:07:31;;;;;;;4.30;2.67;;;;;;;;;;5093229;28;20024;-82
2021/08/18 05:09:57;;;;;;;6.60;2.53;;;;;;;;;;5093038;28;20031;-82
2021/08/18 05:12:23;;;;;;;5.55;2.67;;;;;;;;;;5093029;28;20068;-85
2021/08/18 05:14:49;;;;;;;4.72;2.47;;;;;;;;;;5093929;28;20052;-90
2021/08/18 05:17:15;;;;;;;6.45;2.45;;;;;;;;;;5095563;28;20032;-87
2021/08/18 05:19:42;;;;;;;6.00;3.00;;;;;;;;;;5096393;28;20091;-90
2021/08/18 05:22:09;;;;;;;6.20;2.70;;;;;;;;;;5097511;28;20031;-89
2021/08/18 05:24:35;;;;;;;5.63;2.90;;;;;;;;;;5095537;28;20024;-88
2021/08/18 05:27:01;;;;;;;5.80;2.80;;;;;;;;;;5095427;28;20040;-89
2021/08/18 05:29:27;;;;;;;3.97;2.20;;;;;;;;;;5095319;28;20369;-88
2021/08/18 05:31:54;;;;;;;5.30;2.35;;;;;;;;;;5095028;28;20020;-88
2021/08/18 05:34:20;;;;;;;5.22;2.30;;;;;;;;;;5095321;28;20031;-91
2021/08/18 05:36:46;;;;;;;11.43;2.40;;;;;;;;;;5095194;28;20035;-89
2021/08/18 05:39:12;;;;;;;4.65;2.33;;;;;;;;;;5094656;28;20031;-90
2021/08/18 05:41:38;;;;;;;4.40;2.20;;;;;;;;;;5095314;28;20533;-88
2021/08/18 05:44:04;;;;;;;4.07;2.25;;;;;;;;;;5094969;28;20051;-88
2021/08/18 05:46:30;;;;;;;5.50;2.00;;;;;;;;;;5094952;28;20029;-89
2021/08/18 05:48:56;;;;;;;7.35;3.00;;;;;;;;;;5095406;28;20034;-87
2021/08/18 05:51:23;;;;;;;7.43;2.75;;;;;;;;;;5095870;28;20040;-85
2021/08/18 05:53:50;;;;;;;6.35;2.53;;;;;;;;;;5096745;28;20104;-88
2021/08/18 05:56:20;;;;;;;6.75;2.67;;;;;;;;;;5094246;28;20376;-88
2021/08/18 05:58:46;;;;;;;6.60;2.72;;;;;;;;;;5096012;28;20468;-86
2021/08/18 06:01:12;;;;;;;5.70;2.90;;;;;;;;;;5096491;28;20032;-89
2021/08/18 06:03:38;;;;;;;5.85;2.95;;;;;;;;;;5095034;28;20039;-89
2021/08/18 06:06:04;;;;;;;5.68;3.28;;;;;;;;;;5093719;28;20058;-88
2021/08/18 06:08:30;;;;;;;5.63;2.95;;;;;;;;;;5095145;28;20046;-92
2021/08/18 06:10:56;;;;;;;5.65;2.70;;;;;;;;;;5094506;28;20024;-91
2021/08/18 06:13:23;;;;;;;8.13;3.08;;;;;;;;;;5094533;28;20114;-90
2021/08/18 06:15:50;;;;;;;7.20;2.80;;;;;;;;;;5094764;28;20024;-90
2021/08/18 06:18:16;;;;;;;7.88;2.78;;;;;;;;;;5094413;28;20036;-91
2021/08/18 06:20:42;;;;;;;7.00;2.70;;;;;;;;;;5095245;28;20028;-88
2021/08/18 06:23:08;;;;;;;5.05;2.60;;;;;;;;;;5095819;28;20059;-91
2021/08/18 06:25:35;;;;;;;5.38;2.85;;;;;;;;;;5095014;28;20111;-87
2021/08/18 06:28:01;;;;;;;5.32;2.58;;;;;;;;;;5096208;28;20028;-86
2021/08/18 06:30:29;;;;;;;5.20;2.67;;;;;;;;;;5098551;28;20074;-87
2021/08/18 06:32:55;;;;;;;4.93;2.60;;;;;;;;;;5096792;28;20051;-85
2021/08/18 06:35:21;;;;;;;6.55;2.88;;;;;;;;;;5096906;28;20089;-87
2021/08/18 06:37:47;;;;;;;6.13;2.70;;;;;;;;;;5096805;28;20043;-87
2021/08/18 06:40:13;;;;;;;5.32;2.75;;;;;;;;;;5096663;28;20067;-87
2021/08/18 06:42:44;;;;;;;5.68;2.33;;;;;;;;;;5101488;28;20119;-86
2021/08/18 06:45:11;;;;;;;4.32;2.35;;;;;;;;;;5100715;28;20040;-87
2021/08/18 06:47:38;;;;;;;8.50;3.40;;;;;;;;;;5095545;28;20027;-86
2021/08/18 06:50:05;;;;;;;5.68;2.85;;;;;;;;;;5094593;28;20468;-86
2021/08/18 06:52:31;;;;;;;7.60;2.60;;;;;;;;;;5094820;28;20032;-87
2021/08/18 06:54:58;;;;;;;5.68;2.55;;;;;;;;;;5094685;28;20393;-87
2021/08/18 06:57:24;;;;;;;5.13;2.80;;;;;;;;;;5095835;28;20047;-85
2021/08/18 06:59:50;;;;;;;5.80;2.53;;;;;;;;;;5096259;28;20072;-85
2021/08/18 07:02:16;;;;;;;5.90;2.55;;;;;;;;;;5096158;28;20034;-86
2021/08/18 07:04:42;;;;;;;11.15;2.60;;;;;;;;;;5095992;28;20414;-86
2021/08/18 07:07:09;;;;;;;5.25;2.20;;;;;;;;;;5094821;28;20069;-86
2021/08/18 07:09:35;;;;;;;3.53;1.85;;;;;;;;;;5094838;28;20073;-84
2021/08/18 07:12:01;;;;;;;3.33;1.65;;;;;;;;;;5096962;28;20032;-88
2021/08/18 07:14:27;;;;;;;3.83;1.40;;;;;;;;;;5095567;28;20068;-84
2021/08/18 07:16:53;;;;;;;4.57;1.55;;;;;;;;;;5095593;28;20020;-87
2021/08/18 07:19:19;;;;;;;2.75;1.20;;;;;;;;;;5095970;28;20360;-90
2021/08/18 07:21:45;;;;;;;3.15;1.20;;;;;;;;;;5095325;28;20115;-85
2021/08/18 07:24:11;;;;;;;4.00;1.63;;;;;;;;;;5094488;28;20063;-84
2021/08/18 07:26:37;;;;;;;3.35;1.35;;;;;;;;;;5094253;28;20044;-84
2021/08/18 07:29:04;;;;;;;3.88;1.40;;;;;;;;;;5096255;28;20035;-85
2021/08/18 07:31:30;;;;;;;3.60;1.20;;;;;;;;;;5095420;28;20476;-86
2021/08/18 07:33:56;;;;;;;3.20;1.60;;;;;;;;;;5096809;28;20048;-86
2021/08/18 07:36:22;;;;;;;4.22;1.40;;;;;;;;;;5094994;28;20028;-84
2021/08/18 07:38:49;;;;;;;3.78;1.45;;;;;;;;;;5095361;28;20024;-86
2021/08/18 07:41:15;;;;;;;2.88;1.33;;;;;;;;;;5096435;28;20024;-82
2021/08/18 07:43:41;;;;;;;3.03;1.30;;;;;;;;;;5096136;28;20487;-85
2021/08/18 07:46:07;;;;;;;2.90;1.58;;;;;;;;;;5094857;28;20032;-87
2021/08/18 07:48:33;;;;;;;2.58;1.30;;;;;;;;;;5095194;28;20020;-82
2021/08/18 07:51:00;;;;;;;3.40;1.45;;;;;;;;;;5094803;28;20024;-83
2021/08/18 07:53:27;;;;;;;3.72;1.35;;;;;;;;;;5094642;28;20048;-82
2021/08/18 07:55:53;;;;;;;3.50;1.50;;;;;;;;;;5096278;28;20032;-84
2021/08/18 07:58:19;;;;;;;3.28;1.48;;;;;;;;;;5096258;28;20089;-87
2021/08/18 08:00:45;;;;;;;3.80;1.67;;;;;;;;;;5096620;28;20035;-86
2021/08/18 08:03:11;;;;;;;2.88;1.10;;;;;;;;;;5095453;28;20053;-86
2021/08/18 08:05:37;;;;;;;2.60;1.30;;;;;;;;;;5095399;28;20020;-86
2021/08/18 08:08:04;;;;;;;3.63;1.30;;;;;;;;;;5096211;28;20028;-86
2021/08/18 08:10:30;;;;;;;2.78;1.27;;;;;;;;;;5094309;28;20054;-86
2021/08/18 08:12:56;;;;;;;2.20;1.27;;;;;;;;;;5095467;28;20035;-85
2021/08/18 08:15:22;;;;;;;2.83;1.35;;;;;;;;;;5094471;28;20056;-85
2021/08/18 08:17:48;;;;;;;6.05;1.25;;;;;;;;;;5094688;28;20032;-86
2021/08/18 08:20:15;;;;;;;3.25;1.48;;;;;;;;;;5095732;28;20056;-83
2021/08/18 08:22:41;;;;;;;4.55;1.55;;;;;;;;;;5094716;28;20388;-86
2021/08/18 08:25:07;;;;;;;15.10;1.88;;;;;;;;;;5096323;28;20024;-86
2021/08/18 08:27:34;;;;;;;5.22;1.50;;;;;;;;;;5094622;28;20077;-84
2021/08/18 08:30:00;;;;;;;4.32;1.75;;;;;;;;;;5094627;28;20111;-84
2021/08/18 08:32:26;;;;;;;2.70;1.40;;;;;;;;;;5094483;28;20484;-86
2021/08/18 08:34:52;;;;;;;3.88;1.77;;;;;;;;;;5094542;28;20031;-85
2021/08/18 08:37:18;;;;;;;4.97;1.48;;;;;;;;;;5094183;28;20059;-86
2021/08/18 08:39:45;;;;;;;3.50;1.55;;;;;;;;;;5096209;28;20028;-87
2021/08/18 08:42:12;;;;;;;2.78;1.45;;;;;;;;;;5096015;28;20031;-85
2021/08/18 08:44:39;;;;;;;4.18;1.85;;;;;;;;;;5095775;28;20492;-86
2021/08/18 08:47:07;;;;;;;4.47;1.88;;;;;;;;;;5093908;28;20021;-86
2021/08/18 08:49:33;;;;;;;4.05;1.48;;;;;;;;;;5093692;28;20032;-85
2021/08/18 08:52:00;;;;;;;2.47;1.35;;;;;;;;;;5095326;28;20024;-85
2021/08/18 08:54:26;;;;;;;5.38;2.10;;;;;;;;;;5093717;28;20464;-87
2021/08/18 08:56:52;;;;;;;5.15;1.80;;;;;;;;;;5093775;28;20032;-86
2021/08/18 08:59:18;;;;;;;4.18;1.58;;;;;;;;;;5095045;28;20542;-85
2021/08/18 09:02:03;;;;;;;3.67;1.80;;;;;;;;;;5094997;28;20053;-85
2021/08/18 09:04:33;;;;;;;3.55;1.88;;;;;;;;;;5093427;28;20034;-85
2021/08/18 09:07:06;;;;;;;2.88;1.45;;;;;;;;;;5093413;28;20492;-85
2021/08/18 09:09:33;;;;;;;4.65;1.50;;;;;;;;;;5094753;28;20044;-84
2021/08/18 09:12:03;;;;;;;4.30;1.80;;;;;;;;;;5093156;28;20479;-84
2021/08/18 09:14:29;;;;;;;4.32;1.77;;;;;;;;;;5093411;28;20097;-84
2021/08/18 09:16:55;;;;;;;4.45;1.60;;;;;;;;;;5092746;28;20081;-84
2021/08/18 09:19:27;;;;;;;2.08;1.02;;;;;;;;;;5092860;28;20051;-84
2021/08/18 09:21:53;;;;;;;3.47;1.40;;;;;;;;;;5092427;28;20541;-83
2021/08/18 09:24:20;;;;;;;7.38;1.98;;;;;;;;;;5093622;28;20270;-86
2021/08/18 09:26:48;;;;;;;3.30;1.40;;;;;;;;;;5093166;28;20380;-84
2021/08/18 09:29:27;;;;;;;3.15;1.50;;;;;;;;;;5092952;28;20020;-85
2021/08/18 09:31:53;;;;;;;3.55;1.73;;;;;;;;;;5092905;28;20020;-84
2021/08/18 09:34:19;;;;;;;5.03;1.33;;;;;;;;;;5093076;28;20024;-83
2021/08/18 09:36:45;;;;;;;3.25;1.73;;;;;;;;;;5092739;28;20036;-85
2021/08/18 09:39:19;;;;;;;5.10;1.98;;;;;;;;;;5094225;28;20055;-83
2021/08/18 09:41:45;;;;;;;3.05;1.50;;;;;;;;;;5094338;28;20106;-86
2021/08/18 09:44:11;;;;;;;3.03;1.52;;;;;;;;;;5092597;28;20523;-86
2021/08/18 09:46:37;;;;;;;4.38;1.38;;;;;;;;;;5092854;28;20388;-85
2021/08/18 09:49:10;;;;;;;2.83;1.45;;;;;;;;;;5093689;28;20435;-85
2021/08/18 09:51:37;;;;;;;4.40;1.60;;;;;;;;;;5093361;28;20028;-85
2021/08/18 09:54:16;;;;;;;2.95;1.50;;;;;;;;;;5092704;28;20026;-89
2021/08/18 09:56:49;;;;;;;3.42;1.35;;;;;;;;;;5093120;28;20042;-85
2021/08/18 09:59:17;;;;;;;3.90;1.60;;;;;;;;;;5093518;28;20473;-88
2021/08/18 10:01:44;;;;;;;3.88;1.80;;;;;;;;;;5092486;28;20024;-86
2021/08/18 10:04:10;;;;;;;3.40;1.60;;;;;;;;;;5093776;28;20477;-88
2021/08/18 10:06:37;;;;;;;3.05;1.45;;;;;;;;;;5092872;28;20049;-83
2021/08/18 10:09:04;;;;;;;5.63;1.42;;;;;;;;;;5093460;28;20035;-88
2021/08/18 10:11:30;;;;;;;3.75;2.00;;;;;;;;;;5092591;28;20020;-86
2021/08/18 10:13:56;;;;;;;3.88;1.55;;;;;;;;;;5093785;28;20464;-86
2021/08/18 10:16:23;;;;;;;2.60;1.30;;;;;;;;;;5092736;28;20044;-83
2021/08/18 10:19:03;;;;;;;3.10;1.40;;;;;;;;;;5093085;28;20028;-87
2021/08/18 10:21:31;;;;;;;2.92;1.25;;;;;;;;;;5093713;28;20115;-88
2021/08/18 10:24:00;;;;;;;3.67;1.15;;;;;;;;;;5092582;28;20024;-85
2021/08/18 10:26:36;;;;;;;2.15;1.02;;;;;;;;;;5092689;28;20396;-82
2021/08/18 10:29:06;;;;;;;4.13;1.92;;;;;;;;;;5093837;28;20027;-86
2021/08/18 10:31:42;;;;;;;2.80;1.50;;;;;;;;;;5092952;28;20031;-88
2021/08/18 10:34:31;;;;;;;4.22;1.35;;;;;;;;;;5092269;28;20062;-85
2021/08/18 10:36:57;;;;;;;3.17;1.40;;;;;;;;;;5092766;28;20039;-87
2021/08/18 10:39:24;;;;;;;4.00;1.63;;;;;;;;;;5093411;28;20020;-86
2021/08/18 10:42:09;;;;;;;3.15;1.42;;;;;;;;;;5092105;28;20032;-86
2021/08/18 10:44:48;;;;;;;4.50;1.63;;;;;;;;;;5091519;28;20051;-87
2021/08/18 10:47:17;;;;;;;4.40;1.75;;;;;;;;;;5092190;28;20103;-87
2021/08/18 10:49:44;;;;;;;4.18;1.40;;;;;;;;;;5092514;28;20089;-86
2021/08/18 10:52:10;;;;;;;3.22;1.25;;;;;;;;;;5091980;28;20073;-87
2021/08/18 10:54:44;;;;;;;4.10;1.70;;;;;;;;;;5092002;28;20032;-86
2021/08/18 10:57:39;;;;;;;2.55;1.23;;;;;;;;;;5092195;28;20036;-87
2021/08/18 11:00:17;;;;;;;4.07;1.55;;;;;;;;;;5090190;28;20492;-86
2021/08/18 11:02:48;;;;;;;3.10;1.40;;;;;;;;;;5092359;28;20126;-86
2021/08/18 11:05:15;;;;;;;2.97;1.23;;;;;;;;;;5091704;28;20016;-86
2021/08/18 11:08:00;;;;;;;4.10;1.38;;;;;;;;;;5091898;28;20027;-86
2021/08/18 11:10:27;;;;;;;5.13;1.48;;;;;;;;;;5092020;28;20085;-88
2021/08/18 11:12:54;;;;;;;3.65;1.23;;;;;;;;;;5093573;28;20031;-86
2021/08/18 11:15:20;;;;;;;2.45;1.10;;;;;;;;;;5095888;28;20067;-86
2021/08/18 11:17:47;;;;;;;3.10;1.10;;;;;;;;;;5095928;28;20032;-87
2021/08/18 11:20:16;;;;;;;4.18;1.10;;;;;;;;;;5095626;28;20138;-86
2021/08/18 11:22:42;;;;;;;4.68;0.90;;;;;;;;;;5095568;28;20036;-85
2021/08/18 11:25:09;;;;;;;2.00;0.88;;;;;;;;;;5095433;28;20048;-85
2021/08/18 11:27:35;;;;;;;2.35;1.00;;;;;;;;;;5095284;28;20032;-86
2021/08/18 11:30:01;;;;;;;5.18;1.20;;;;;;;;;;5095026;28;20438;-86
2021/08/18 11:32:27;;;;;;;4.90;1.23;;;;;;;;;;5095132;28;20114;-86
2021/08/18 11:34:53;;;;;;;2.45;1.38;;;;;;;;;;5095479;28;20028;-91
2021/08/18 11:37:20;;;;;;;2.72;1.20;;;;;;;;;;5097712;28;20476;-80
2021/08/18 11:39:55;;;;;;;2.83;1.20;;;;;;;;;;5094998;28;20050;-80
2021/08/18 11:42:22;;;;;;;1.92;0.80;;;;;;;;;;5095385;28;20613;-79
2021/08/18 11:44:59;;;;;;;3.90;1.25;;;;;;;;;;5096109;28;20454;-87
2021/08/18 11:47:29;;;;;;;2.72;1.00;;;;;;;;;;5096290;28;20024;-80
2021/08/18 11:49:55;;;;;;;2.53;1.00;;;;;;;;;;5095569;28;20098;-90
2021/08/18 11:52:22;;;;;;;2.60;0.95;;;;;;;;;;5095435;28;20020;-86
2021/08/18 11:55:07;;;;;;;3.60;1.30;;;;;;;;;;5096274;28;20032;-94
2021/08/18 11:57:33;;;;;;;1.52;0.60;;;;;;;;;;5096514;28;20032;-94
2021/08/18 12:00:01;;;;;;;2.53;0.82;;;;;;;;;;5097035;28;20099;-94
2021/08/18 12:02:28;;;;;;;1.52;0.50;;;;;;;;;;5095340;28;20028;-87
2021/08/18 12:04:58;;;;;;;1.45;0.40;;;;;;;;;;5095715;28;20016;-94
2021/08/18 12:07:28;;;;;;;2.35;0.68;;;;;;;;;;5095921;28;20463;-94
2021/08/18 12:10:14;;;;;;;1.52;0.52;;;;;;;;;;5095015;28;20031;-86
2021/08/18 12:12:40;;;;;;;3.10;0.52;;;;;;;;;;5074997;28;20105;-89
2021/08/18 12:15:11;;;;;;;1.95;0.60;;;;;;;;;;5074528;28;20091;-89
2021/08/18 12:17:39;;;;;;;1.77;0.55;;;;;;;;;;5074487;28;20054;-87
2021/08/18 12:20:22;;;;;;;1.55;0.70;;;;;;;;;;5074908;28;20457;-92
2021/08/18 12:22:48;;;;;;;1.40;0.63;;;;;;;;;;5074463;28;20031;-86
2021/08/18 12:25:14;;;;;;;3.63;0.68;;;;;;;;;;5074045;28;20035;-93
2021/08/18 12:27:41;;;;;;;2.72;0.73;;;;;;;;;;5075516;28;20020;-90
2021/08/18 12:30:12;;;;;;;1.60;0.63;;;;;;;;;;5074891;28;20543;-88
